Observations for Trim Market St
| Time | AQI | Temp °C | Hum % | Pres Pa | CO μg/m³ | H₂S μg/m³ | NO μg/m³ | NO₂ μg/m³ | O₃ μg/m³ | SO₂ μg/m³ | PM1 μg/m³ | PM2.5 μg/m³ | PM10 μg/m³ |
|---|---|---|---|---|---|---|---|---|---|---|---|---|---|
| Monday 17 August 2026 | |||||||||||||
| 05:18 | 2 | 17.9 | 80 | 2,147,483,647 | 0.05 | 0 | 1.9 | 3.8 | 52.79 | 0 | 0 | 2.12 | 4.69 |
| 05:17 | 2 | 18 | 80 | 2,147,483,647 | 0.04 | 0 | 1.91 | 3.54 | 52.41 | 0 | 0 | 0.7 | 2.98 |
| 05:16 | 2 | 17.9 | 80 | 2,147,483,647 | 0.04 | 0 | 1.9 | 3.86 | 53.79 | 0 | 0 | 1.18 | 3.55 |
| 05:15 | 2 | 18 | 80 | 2,147,483,647 | 0.05 | 0 | 1.9 | 3.73 | 54.33 | 0 | 0 | 1.18 | 3.55 |
| 05:14 | 2 | 18 | 80 | 2,147,483,647 | 0.05 | 0 | 1.9 | 3.62 | 50.46 | 0 | 0 | 1.18 | 3.55 |
| 05:13 | 2 | 18 | 80 | 2,147,483,647 | 0.05 | 0 | 1.87 | 3.74 | 55.71 | 0 | 0 | 0.71 | 2.97 |
| 05:12 | 2 | 18 | 80 | 2,147,483,647 | 0.05 | 0 | 1.83 | 3.85 | 49.54 | 0 | 0 | 1.18 | 3.54 |
| 05:09 | 2 | 18 | 79 | 2,147,483,647 | 0.05 | 0 | 1.81 | 3.8 | 48.91 | 0 | 0 | 1.19 | 3.53 |
| 04:44 | 2 | 18.3 | 79 | 2,147,483,647 | 0.06 | 0 | 1.87 | 3.5 | 46.25 | 0 | 0 | 1.69 | 4.08 |
| 04:43 | 2 | 18.3 | 79 | 2,147,483,647 | 0.04 | 0 | 1.87 | 3.37 | 52.74 | 0 | 0 | 1.7 | 4.08 |
| 04:42 | 2 | 18.3 | 79 | 2,147,483,647 | 0.04 | 0 | 1.88 | 3.32 | 52.29 | 0 | 0 | 1.22 | 3.51 |
| 04:37 | 2 | 18.3 | 79 | 2,147,483,647 | 0.05 | 0 | 1.84 | 3.12 | 62.65 | 0 | 0 | 1.23 | 3.5 |
| 04:35 | 2 | 18.3 | 78 | 2,147,483,647 | 0.05 | 0 | 1.68 | 3.89 | 57.09 | 0 | 0 | 1.23 | 3.5 |
| 04:34 | 2 | 18.4 | 78 | 2,147,483,647 | 0.05 | 0 | 1.68 | 3.39 | 52.53 | 0 | 0 | 1.23 | 4.07 |
| 04:33 | 2 | 18.3 | 78 | 2,147,483,647 | 0.05 | 0 | 1.72 | 3.58 | 53.07 | 0 | 0 | 0.76 | 2.92 |
| 04:32 | 2 | 18.3 | 78 | 2,147,483,647 | 0.07 | 0 | 1.77 | 3.76 | 52.66 | 0 | 0 | 1.24 | 3.49 |
| 04:31 | 2 | 18.3 | 78 | 2,147,483,647 | 0.06 | 0 | 1.84 | 3.6 | 52.75 | 0 | 0 | 1.71 | 4.07 |
| 04:30 | 2 | 18.3 | 78 | 2,147,483,647 | 0.05 | 0 | 1.84 | 3.81 | 54.58 | 0 | 0 | 1.24 | 3.49 |
| 04:29 | 2 | 18.4 | 78 | 2,147,483,647 | 0.06 | 0 | 1.83 | 3.42 | 49.25 | 0 | 0 | 1.71 | 4.07 |
| 04:28 | 2 | 18.4 | 78 | 2,147,483,647 | 0.06 | 0 | 1.84 | 3.61 | 55.4 | 0 | 0.71 | 2.19 | 4.64 |